Runo — EFGQ — position and weather

sailwx.info

Track history (hours):
 
Tides and Currents Weather Stations Pressure Air Temp Water Temp Dewpoint Dewpoint Depression Visibility Wind Speed Wind Dir Waves Ship Positions

Runo

Last reported at 2016-Sep-28 03:13 UTC. Time now 2016-Dec-07 14:26 UTC.
Position N 08°49' W 079°39'.
Warning: this ship's position is months out of date.

Length 30 m; draft 4 m.

Type: Fishing. MMSI: 224544160.

Date/timePositionNaut miles runAvg speedWind from/ knotsBaromVisibWave heightAir tempDewpointWater temp
2016-Sep-28 03:13N 08°49' W 079°39'1 1.8
2016-Sep-28 02:29N 08°50' W 079°39'0 0.0
2016-Sep-28 01:25N 08°50' W 079°39'0 0.0
2016-Sep-27 23:32N 08°50' W 079°39'0 0.0
2016-Sep-27 19:24N 08°50' W 079°39'0 0.0
2016-Sep-27 14:32N 08°50' W 079°39'0 0.0
2016-Sep-27 13:26N 08°50' W 079°39'0 0.0
2016-Sep-27 10:30N 08°50' W 079°39'0 0.0
2016-Sep-27 00:30N 08°50' W 079°39'0 0.0
2016-Sep-26 20:31N 08°50' W 079°39'0 0.0
2016-Sep-26 19:30N 08°50' W 079°39'0 0.0
2016-Sep-26 15:31N 08°50' W 079°39'0 0.0
2016-Sep-26 13:22N 08°50' W 079°39'0 0.0
2016-Sep-25 21:28N 08°50' W 079°39'0 0.0
2016-Sep-25 17:29N 08°50' W 079°39'0 0.0
2016-Sep-25 16:31N 08°50' W 079°39'0 0.0
2016-Sep-25 15:26N 08°50' W 079°39'0 0.0
2016-Sep-25 14:25N 08°50' W 079°39'1 0.7
2016-Sep-25 12:27N 08°49' W 079°39'6 5.5
2016-Sep-25 11:27N 08°44' W 079°38'6 5.2
2016-Sep-25 10:17N 08°38' W 079°39'3 4.5
2016-Sep-25 09:31N 08°34' W 079°39'  
2016-Sep-20 10:31N 08°52' W 079°40'0 0.0
2016-Sep-20 08:33N 08°52' W 079°40'0 0.0
2016-Sep-20 07:19N 08°52' W 079°40'0 0.0
2016-Sep-20 06:30N 08°52' W 079°40'0 0.0
2016-Sep-20 02:31N 08°52' W 079°40'2 0.2
2016-Sep-19 19:30N 08°50' W 079°39'0 0.4
2016-Sep-19 18:29N 08°50' W 079°39'17 8.0
2016-Sep-19 16:23N 08°33' W 079°40'15 7.5
2016-Sep-19 14:24N 08°18' W 079°41'  
Track history (hours):
 
Tides and Currents Weather Stations Pressure Air Temp Water Temp Dewpoint Dewpoint Depression Visibility Wind Speed Wind Dir Waves Ship Positions

Runo

Last reported at 2016-Sep-28 03:13 UTC. Time now 2016-Dec-07 14:26 UTC.
Position N 08°49' W 079°39'.
Warning: this ship's position is months out of date.

Length 30 m; draft 4 m.

Type: Fishing. MMSI: 224544160.

Date/timePositionNaut miles runAvg speedWind from/ knotsBaromVisibWave heightAir tempDewpointWater temp
2016-Sep-28 03:13N 08°49' W 079°39'1 1.8
2016-Sep-28 02:29N 08°50' W 079°39'0 0.0
2016-Sep-28 01:25N 08°50' W 079°39'0 0.0
2016-Sep-27 23:32N 08°50' W 079°39'0 0.0
2016-Sep-27 19:24N 08°50' W 079°39'0 0.0
2016-Sep-27 14:32N 08°50' W 079°39'0 0.0
2016-Sep-27 13:26N 08°50' W 079°39'0 0.0
2016-Sep-27 10:30N 08°50' W 079°39'0 0.0
2016-Sep-27 00:30N 08°50' W 079°39'0 0.0
2016-Sep-26 20:31N 08°50' W 079°39'0 0.0
2016-Sep-26 19:30N 08°50' W 079°39'0 0.0
2016-Sep-26 15:31N 08°50' W 079°39'0 0.0
2016-Sep-26 13:22N 08°50' W 079°39'0 0.0
2016-Sep-25 21:28N 08°50' W 079°39'0 0.0
2016-Sep-25 17:29N 08°50' W 079°39'0 0.0
2016-Sep-25 16:31N 08°50' W 079°39'0 0.0
2016-Sep-25 15:26N 08°50' W 079°39'0 0.0
2016-Sep-25 14:25N 08°50' W 079°39'1 0.7
2016-Sep-25 12:27N 08°49' W 079°39'6 5.5
2016-Sep-25 11:27N 08°44' W 079°38'6 5.2
2016-Sep-25 10:17N 08°38' W 079°39'3 4.5
2016-Sep-25 09:31N 08°34' W 079°39'  
2016-Sep-20 10:31N 08°52' W 079°40'0 0.0
2016-Sep-20 08:33N 08°52' W 079°40'0 0.0
2016-Sep-20 07:19N 08°52' W 079°40'0 0.0
2016-Sep-20 06:30N 08°52' W 079°40'0 0.0
2016-Sep-20 02:31N 08°52' W 079°40'2 0.2
2016-Sep-19 19:30N 08°50' W 079°39'0 0.4
2016-Sep-19 18:29N 08°50' W 079°39'17 8.0
2016-Sep-19 16:23N 08°33' W 079°40'15 7.5
2016-Sep-19 14:24N 08°18' W 079°41'  

Dump ship's entire track history